Portada
METAR-TAF:

METAR-TAF

Aeroports :

Kingston, Jamaica

latitud: 17-56N, longitud: 076-47W, altitud: 3 m

Observació

L'informe es va fer fa 32 minuts, a les 22:00 UTC
Vent 17 kt del Est/Sud-Est
Temperatura 28°C
Humitat 66%
Pressió 1010 hPa
Visibilitat 10 km o més
Escasses núvols a una alçada de 2400 ft

METAR: MKJP 152200Z 12017KT 9999 FEW024 28/21 Q1010

Hora: 17:32 (22:32 UTC)

Pronòstic

L'informe es va fer fa 5 hores i 17 minuts, a les 17:15 UTC
Pronòstic vàlid del 15 a les 18 UTC al 16 a les 18 UTC
Vent 12 kt del Sud
Visibilitat 10 km o més
Escasses núvols a una alçada de 2400 ft
Evolucionant progressivament
l' 16 a les 01 UTC al 16 a les 03 UTC
Vent 6 kt del Nord
Evolucionant progressivament
l' 16 a les 14 UTC al 16 a les 16 UTC
Vent 14 kt del Sud/Sud-Est

TAF: MKJP 151715Z 1518/1618 18012KT 9999 FEW024 BECMG 1601/1603 35006KT BECMG 1614/1616 15014KT

Observacions i pronòstics meteorològics de més de 4000 aeroports (METAR i TAF).

Les estacions disponibles són els punts grocs i vermells al mapa.

Posi el ratolí al punt desitjat per veure el nom de l'estació.

Feu clic per veure les observacions i els pronòstics meteorològics.

Per canviar el mapa: feu clic els botons verds amb una creu de color negre per apropar; al botó verd amb un guió per allunyar la imatge; o en les fletxes verdes per a mapes adjacents.


METAR-TAF: